sensor_id;sensor_type;location;lat;lon;timestamp;temperature;humidity
28959;DHT22;16066;0.000;0.000;2023-10-09T05:31:08;19.60;61.90
28959;DHT22;16066;0.000;0.000;2023-10-09T05:33:35;19.60;61.90
28959;DHT22;16066;0.000;0.000;2023-10-09T05:36:08;19.60;61.90
28959;DHT22;16066;0.000;0.000;2023-10-09T05:38:57;19.60;62.00
28959;DHT22;16066;0.000;0.000;2023-10-09T05:41:44;19.60;62.60
28959;DHT22;16066;0.000;0.000;2023-10-09T05:44:12;19.60;62.00
28959;DHT22;16066;0.000;0.000;2023-10-09T05:47:01;19.60;62.60
28959;DHT22;16066;0.000;0.000;2023-10-09T05:49:45;19.60;61.90
28959;DHT22;16066;0.000;0.000;2023-10-09T05:52:12;19.60;61.90
28959;DHT22;16066;0.000;0.000;2023-10-09T05:54:58;19.70;62.00
28959;DHT22;16066;0.000;0.000;2023-10-09T05:57:56;19.60;61.90
28959;DHT22;16066;0.000;0.000;2023-10-09T06:00:34;19.60;61.90
28959;DHT22;16066;0.000;0.000;2023-10-09T06:03:18;19.70;62.00
28959;DHT22;16066;0.000;0.000;2023-10-09T06:05:48;19.60;61.80
28959;DHT22;16066;0.000;0.000;2023-10-09T06:08:31;19.60;61.80
28959;DHT22;16066;0.000;0.000;2023-10-09T06:11:10;19.60;61.90
28959;DHT22;16066;0.000;0.000;2023-10-09T06:13:55;19.60;61.80
28959;DHT22;16066;0.000;0.000;2023-10-09T06:16:36;19.70;62.00
28959;DHT22;16066;0.000;0.000;2023-10-09T06:19:12;19.70;61.80
28959;DHT22;16066;0.000;0.000;2023-10-09T06:21:55;19.70;61.80
28959;DHT22;16066;0.000;0.000;2023-10-09T06:24:30;19.70;61.80
28959;DHT22;16066;0.000;0.000;2023-10-09T06:27:07;19.70;61.70
28959;DHT22;16066;0.000;0.000;2023-10-09T06:29:32;19.70;61.70
28959;DHT22;16066;0.000;0.000;2023-10-09T06:32:08;19.70;61.80
28959;DHT22;16066;0.000;0.000;2023-10-09T06:35:00;19.60;62.00
28959;DHT22;16066;0.000;0.000;2023-10-09T06:37:50;19.60;62.30
28959;DHT22;16066;0.000;0.000;2023-10-09T06:40:38;19.50;62.50
28959;DHT22;16066;0.000;0.000;2023-10-09T06:43:23;19.40;62.60
28959;DHT22;16066;0.000;0.000;2023-10-09T06:45:49;19.40;62.90
28959;DHT22;16066;0.000;0.000;2023-10-09T06:48:34;19.30;62.90
28959;DHT22;16066;0.000;0.000;2023-10-09T06:51:03;19.30;63.20
28959;DHT22;16066;0.000;0.000;2023-10-09T06:53:44;19.40;63.00
28959;DHT22;16066;0.000;0.000;2023-10-09T06:56:32;19.40;62.90
28959;DHT22;16066;0.000;0.000;2023-10-09T06:59:00;19.40;62.80
28959;DHT22;16066;0.000;0.000;2023-10-09T07:01:30;19.40;62.90
28959;DHT22;16066;0.000;0.000;2023-10-09T07:04:11;19.40;63.20
28959;DHT22;16066;0.000;0.000;2023-10-09T07:06:56;19.40;63.30
28959;DHT22;16066;0.000;0.000;2023-10-09T07:09:22;19.40;63.30
28959;DHT22;16066;0.000;0.000;2023-10-09T07:11:51;19.30;63.20
28959;DHT22;16066;0.000;0.000;2023-10-09T07:14:22;19.30;63.80
28959;DHT22;16066;0.000;0.000;2023-10-09T07:17:03;19.30;63.70
28959;DHT22;16066;0.000;0.000;2023-10-09T07:19:41;19.30;63.50
28959;DHT22;16066;0.000;0.000;2023-10-09T07:22:11;19.30;63.60
28959;DHT22;16066;0.000;0.000;2023-10-09T07:24:49;19.30;63.70
28959;DHT22;16066;0.000;0.000;2023-10-09T07:27:19;19.30;63.70
28959;DHT22;16066;0.000;0.000;2023-10-09T07:30:07;19.30;63.80
28959;DHT22;16066;0.000;0.000;2023-10-09T07:33:12;19.30;63.80
28959;DHT22;16066;0.000;0.000;2023-10-09T07:35:46;19.20;63.70
28959;DHT22;16066;0.000;0.000;2023-10-09T07:38:26;19.30;63.80
28959;DHT22;16066;0.000;0.000;2023-10-09T07:40:54;19.30;63.90
28959;DHT22;16066;0.000;0.000;2023-10-09T07:43:36;19.30;63.90
28959;DHT22;16066;0.000;0.000;2023-10-09T07:46:08;19.30;63.80
28959;DHT22;16066;0.000;0.000;2023-10-09T07:48:53;19.30;63.70
28959;DHT22;16066;0.000;0.000;2023-10-09T07:51:23;19.30;63.70
28959;DHT22;16066;0.000;0.000;2023-10-09T07:53:50;19.40;63.70
28959;DHT22;16066;0.000;0.000;2023-10-09T07:56:25;19.40;63.70
28959;DHT22;16066;0.000;0.000;2023-10-09T07:58:56;19.40;64.30
28959;DHT22;16066;0.000;0.000;2023-10-09T08:01:26;19.40;63.70
28959;DHT22;16066;0.000;0.000;2023-10-09T08:03:54;19.40;63.80
28959;DHT22;16066;0.000;0.000;2023-10-09T08:06:27;19.40;63.70
28959;DHT22;16066;0.000;0.000;2023-10-09T08:09:05;19.40;63.70
28959;DHT22;16066;0.000;0.000;2023-10-09T08:11:41;19.40;63.70
28959;DHT22;16066;0.000;0.000;2023-10-09T08:14:10;19.40;63.70
28959;DHT22;16066;0.000;0.000;2023-10-09T08:16:51;19.40;64.10
28959;DHT22;16066;0.000;0.000;2023-10-09T08:19:37;19.40;64.50
28959;DHT22;16066;0.000;0.000;2023-10-09T08:22:18;19.40;64.00
28959;DHT22;16066;0.000;0.000;2023-10-09T08:24:49;19.50;64.00
28959;DHT22;16066;0.000;0.000;2023-10-09T08:27:25;19.50;64.50
28959;DHT22;16066;0.000;0.000;2023-10-09T08:30:02;19.50;64.60
28959;DHT22;16066;0.000;0.000;2023-10-09T08:32:50;19.60;64.40
28959;DHT22;16066;0.000;0.000;2023-10-09T08:35:34;19.60;64.30
28959;DHT22;16066;0.000;0.000;2023-10-09T08:38:13;19.60;64.30
28959;DHT22;16066;0.000;0.000;2023-10-09T08:40:41;19.60;64.40
28959;DHT22;16066;0.000;0.000;2023-10-09T08:43:17;19.70;64.10
28959;DHT22;16066;0.000;0.000;2023-10-09T08:45:49;19.70;63.90
28959;DHT22;16066;0.000;0.000;2023-10-09T08:48:19;19.70;63.60
28959;DHT22;16066;0.000;0.000;2023-10-09T08:50:50;19.80;63.60
28959;DHT22;16066;0.000;0.000;2023-10-09T08:53:16;19.70;63.70
28959;DHT22;16066;0.000;0.000;2023-10-09T08:55:42;19.70;63.80
28959;DHT22;16066;0.000;0.000;2023-10-09T08:58:09;19.80;63.90
28959;DHT22;16066;0.000;0.000;2023-10-09T09:00:52;19.80;64.00
28959;DHT22;16066;0.000;0.000;2023-10-09T09:03:21;19.80;63.60
28959;DHT22;16066;0.000;0.000;2023-10-09T09:05:59;19.70;63.60
28959;DHT22;16066;0.000;0.000;2023-10-09T09:08:30;19.80;63.80
28959;DHT22;16066;0.000;0.000;2023-10-09T09:10:58;19.70;63.70
28959;DHT22;16066;0.000;0.000;2023-10-09T09:13:25;19.70;63.90
28959;DHT22;16066;0.000;0.000;2023-10-09T09:15:57;19.70;63.70
28959;DHT22;16066;0.000;0.000;2023-10-09T09:18:23;19.70;63.90
28959;DHT22;16066;0.000;0.000;2023-10-09T09:20:48;19.70;63.80
28959;DHT22;16066;0.000;0.000;2023-10-09T09:23:19;19.80;64.10
28959;DHT22;16066;0.000;0.000;2023-10-09T09:25:49;19.80;64.00
28959;DHT22;16066;0.000;0.000;2023-10-09T09:28:24;19.80;64.10
28959;DHT22;16066;0.000;0.000;2023-10-09T09:30:52;19.80;64.00
28959;DHT22;16066;0.000;0.000;2023-10-09T09:33:27;19.80;63.90
28959;DHT22;16066;0.000;0.000;2023-10-09T09:36:00;19.80;63.90
28959;DHT22;16066;0.000;0.000;2023-10-09T09:38:31;19.80;63.90
28959;DHT22;16066;0.000;0.000;2023-10-09T09:41:18;19.90;63.90
28959;DHT22;16066;0.000;0.000;2023-10-09T09:43:54;19.90;63.90
28959;DHT22;16066;0.000;0.000;2023-10-09T09:46:24;19.90;63.90
28959;DHT22;16066;0.000;0.000;2023-10-09T09:49:00;19.90;63.40
28959;DHT22;16066;0.000;0.000;2023-10-09T09:51:30;19.90;63.40
28959;DHT22;16066;0.000;0.000;2023-10-09T09:53:55;19.90;63.50
28959;DHT22;16066;0.000;0.000;2023-10-09T09:56:24;20.00;63.40
28959;DHT22;16066;0.000;0.000;2023-10-09T09:58:51;20.00;63.30
28959;DHT22;16066;0.000;0.000;2023-10-09T10:01:28;20.00;63.00
28959;DHT22;16066;0.000;0.000;2023-10-09T10:04:20;20.00;63.10
28959;DHT22;16066;0.000;0.000;2023-10-09T10:06:48;20.00;63.00
28959;DHT22;16066;0.000;0.000;2023-10-09T10:09:36;19.90;62.90
28959;DHT22;16066;0.000;0.000;2023-10-09T10:12:08;20.00;62.90
28959;DHT22;16066;0.000;0.000;2023-10-09T10:14:56;20.00;62.80
28959;DHT22;16066;0.000;0.000;2023-10-09T10:17:31;20.00;62.70
28959;DHT22;16066;0.000;0.000;2023-10-09T10:22:26;20.00;62.70
28959;DHT22;16066;0.000;0.000;2023-10-09T10:24:56;20.00;62.60
28959;DHT22;16066;0.000;0.000;2023-10-09T10:27:34;20.10;62.80
28959;DHT22;16066;0.000;0.000;2023-10-09T10:35:20;20.10;62.70
28959;DHT22;16066;0.000;0.000;2023-10-09T10:37:58;20.10;62.80
28959;DHT22;16066;0.000;0.000;2023-10-09T10:40:37;20.10;62.60
28959;DHT22;16066;0.000;0.000;2023-10-09T10:43:18;20.10;62.70
28959;DHT22;16066;0.000;0.000;2023-10-09T10:46:07;20.20;62.70
28959;DHT22;16066;0.000;0.000;2023-10-09T10:48:52;20.20;62.60
28959;DHT22;16066;0.000;0.000;2023-10-09T10:51:34;20.20;62.40
28959;DHT22;16066;0.000;0.000;2023-10-09T10:54:04;20.30;62.50
28959;DHT22;16066;0.000;0.000;2023-10-09T10:56:49;20.20;62.50
28959;DHT22;16066;0.000;0.000;2023-10-09T10:59:19;20.30;62.40
28959;DHT22;16066;0.000;0.000;2023-10-09T11:01:49;20.30;62.30
28959;DHT22;16066;0.000;0.000;2023-10-09T11:04:40;20.30;62.30
28959;DHT22;16066;0.000;0.000;2023-10-09T11:07:09;20.30;62.30
28959;DHT22;16066;0.000;0.000;2023-10-09T11:09:57;20.30;62.30
28959;DHT22;16066;0.000;0.000;2023-10-09T11:12:42;20.30;62.40
28959;DHT22;16066;0.000;0.000;2023-10-09T11:15:13;20.30;62.30
28959;DHT22;16066;0.000;0.000;2023-10-09T11:18:09;20.30;62.40
28959;DHT22;16066;0.000;0.000;2023-10-09T11:20:57;20.30;62.20
28959;DHT22;16066;0.000;0.000;2023-10-09T11:23:32;20.30;62.10
28959;DHT22;16066;0.000;0.000;2023-10-09T11:26:02;20.30;62.10
28959;DHT22;16066;0.000;0.000;2023-10-09T11:29:11;20.40;62.00
28959;DHT22;16066;0.000;0.000;2023-10-09T11:32:07;20.40;62.10
28959;DHT22;16066;0.000;0.000;2023-10-09T11:34:39;20.50;61.90
28959;DHT22;16066;0.000;0.000;2023-10-09T11:37:14;20.50;61.70
28959;DHT22;16066;0.000;0.000;2023-10-09T11:39:55;20.50;61.70
28959;DHT22;16066;0.000;0.000;2023-10-09T11:42:22;20.50;61.50
28959;DHT22;16066;0.000;0.000;2023-10-09T11:45:22;20.50;61.30
28959;DHT22;16066;0.000;0.000;2023-10-09T11:47:55;20.50;61.20
28959;DHT22;16066;0.000;0.000;2023-10-09T11:50:42;20.50;61.10
28959;DHT22;16066;0.000;0.000;2023-10-09T11:53:17;20.50;61.80
28959;DHT22;16066;0.000;0.000;2023-10-09T11:55:58;20.50;61.00
28959;DHT22;16066;0.000;0.000;2023-10-09T11:58:24;20.60;60.90
28959;DHT22;16066;0.000;0.000;2023-10-09T12:00:53;20.60;60.90
28959;DHT22;16066;0.000;0.000;2023-10-09T12:03:28;20.70;61.10
28959;DHT22;16066;0.000;0.000;2023-10-09T12:05:58;20.70;61.00
28959;DHT22;16066;0.000;0.000;2023-10-09T12:08:29;20.70;60.80
28959;DHT22;16066;0.000;0.000;2023-10-09T12:10:55;20.80;61.00
28959;DHT22;16066;0.000;0.000;2023-10-09T12:13:22;20.80;60.80
28959;DHT22;16066;0.000;0.000;2023-10-09T12:15:52;20.80;60.80
28959;DHT22;16066;0.000;0.000;2023-10-09T12:18:20;20.90;60.90
28959;DHT22;16066;0.000;0.000;2023-10-09T12:20:46;20.80;60.60
28959;DHT22;16066;0.000;0.000;2023-10-09T12:23:17;20.90;60.70
28959;DHT22;16066;0.000;0.000;2023-10-09T12:25:43;20.90;60.60
28959;DHT22;16066;0.000;0.000;2023-10-09T12:28:12;20.90;60.70
28959;DHT22;16066;0.000;0.000;2023-10-09T12:30:38;20.90;60.70
28959;DHT22;16066;0.000;0.000;2023-10-09T12:33:08;20.90;60.90
28959;DHT22;16066;0.000;0.000;2023-10-09T12:35:37;20.90;60.70
28959;DHT22;16066;0.000;0.000;2023-10-09T12:38:04;20.90;60.70
28959;DHT22;16066;0.000;0.000;2023-10-09T12:40:34;20.90;60.70
28959;DHT22;16066;0.000;0.000;2023-10-09T12:43:00;21.00;60.60
28959;DHT22;16066;0.000;0.000;2023-10-09T12:45:26;21.00;60.60
28959;DHT22;16066;0.000;0.000;2023-10-09T12:47:55;21.00;60.50
28959;DHT22;16066;0.000;0.000;2023-10-09T12:50:27;21.00;60.60
28959;DHT22;16066;0.000;0.000;2023-10-09T12:52:56;21.00;60.60
28959;DHT22;16066;0.000;0.000;2023-10-09T12:55:30;21.00;60.60
28959;DHT22;16066;0.000;0.000;2023-10-09T12:58:00;21.00;60.50
28959;DHT22;16066;0.000;0.000;2023-10-09T13:00:27;21.00;60.50
28959;DHT22;16066;0.000;0.000;2023-10-09T13:02:52;21.10;60.40
28959;DHT22;16066;0.000;0.000;2023-10-09T13:05:18;21.10;60.40
28959;DHT22;16066;0.000;0.000;2023-10-09T13:07:52;21.10;60.30
28959;DHT22;16066;0.000;0.000;2023-10-09T13:10:19;21.10;60.20
28959;DHT22;16066;0.000;0.000;2023-10-09T13:12:45;21.10;60.00
28959;DHT22;16066;0.000;0.000;2023-10-09T13:15:11;21.10;60.00
28959;DHT22;16066;0.000;0.000;2023-10-09T13:17:37;21.10;60.00
28959;DHT22;16066;0.000;0.000;2023-10-09T13:20:04;21.10;60.10
28959;DHT22;16066;0.000;0.000;2023-10-09T13:22:40;21.10;60.30
28959;DHT22;16066;0.000;0.000;2023-10-09T13:25:10;21.10;60.00
28959;DHT22;16066;0.000;0.000;2023-10-09T13:27:50;21.10;60.00
28959;DHT22;16066;0.000;0.000;2023-10-09T13:30:17;21.10;60.00
28959;DHT22;16066;0.000;0.000;2023-10-09T13:32:48;21.10;60.00
28959;DHT22;16066;0.000;0.000;2023-10-09T13:35:17;21.10;60.00
28959;DHT22;16066;0.000;0.000;2023-10-09T13:37:44;21.10;59.80
28959;DHT22;16066;0.000;0.000;2023-10-09T13:40:17;21.10;59.80
28959;DHT22;16066;0.000;0.000;2023-10-09T13:42:53;21.10;59.70
28959;DHT22;16066;0.000;0.000;2023-10-09T13:45:19;21.10;59.70
28959;DHT22;16066;0.000;0.000;2023-10-09T13:47:53;21.10;60.30
28959;DHT22;16066;0.000;0.000;2023-10-09T13:50:20;21.10;59.80
28959;DHT22;16066;0.000;0.000;2023-10-09T13:52:47;21.10;59.80
28959;DHT22;16066;0.000;0.000;2023-10-09T13:55:13;21.10;60.10
28959;DHT22;16066;0.000;0.000;2023-10-09T13:57:43;21.10;60.00
28959;DHT22;16066;0.000;0.000;2023-10-09T14:00:12;21.10;60.20
28959;DHT22;16066;0.000;0.000;2023-10-09T14:02:43;21.10;60.00
28959;DHT22;16066;0.000;0.000;2023-10-09T14:05:08;21.10;60.20
28959;DHT22;16066;0.000;0.000;2023-10-09T14:07:34;21.20;60.30
28959;DHT22;16066;0.000;0.000;2023-10-09T14:10:00;21.20;60.10
28959;DHT22;16066;0.000;0.000;2023-10-09T14:12:51;21.20;60.00
28959;DHT22;16066;0.000;0.000;2023-10-09T14:15:19;21.30;60.00
28959;DHT22;16066;0.000;0.000;2023-10-09T14:17:45;21.20;59.90
28959;DHT22;16066;0.000;0.000;2023-10-09T14:20:12;21.20;60.10
28959;DHT22;16066;0.000;0.000;2023-10-09T14:22:58;21.30;60.30
28959;DHT22;16066;0.000;0.000;2023-10-09T14:25:34;21.20;60.10
28959;DHT22;16066;0.000;0.000;2023-10-09T14:28:10;21.20;60.20
28959;DHT22;16066;0.000;0.000;2023-10-09T14:30:37;21.20;60.30
28959;DHT22;16066;0.000;0.000;2023-10-09T14:33:13;21.20;60.50
28959;DHT22;16066;0.000;0.000;2023-10-09T14:35:42;21.20;60.60
28959;DHT22;16066;0.000;0.000;2023-10-09T14:38:09;21.20;60.60
28959;DHT22;16066;0.000;0.000;2023-10-09T14:40:44;21.20;60.70
28959;DHT22;16066;0.000;0.000;2023-10-09T14:43:11;21.20;60.80
28959;DHT22;16066;0.000;0.000;2023-10-09T14:45:46;21.20;60.80
28959;DHT22;16066;0.000;0.000;2023-10-09T14:48:17;21.20;61.60
28959;DHT22;16066;0.000;0.000;2023-10-09T14:50:50;21.20;60.70
28959;DHT22;16066;0.000;0.000;2023-10-09T14:53:20;21.20;60.70
28959;DHT22;16066;0.000;0.000;2023-10-09T14:55:46;21.20;60.50
28959;DHT22;16066;0.000;0.000;2023-10-09T14:58:13;21.20;60.50
28959;DHT22;16066;0.000;0.000;2023-10-09T15:00:39;21.20;60.50
28959;DHT22;16066;0.000;0.000;2023-10-09T15:03:14;21.20;60.50
28959;DHT22;16066;0.000;0.000;2023-10-09T15:05:43;21.20;60.40
28959;DHT22;16066;0.000;0.000;2023-10-09T15:08:09;21.20;60.50
28959;DHT22;16066;0.000;0.000;2023-10-09T15:10:46;21.20;60.50
28959;DHT22;16066;0.000;0.000;2023-10-09T15:13:15;21.20;60.50
28959;DHT22;16066;0.000;0.000;2023-10-09T15:15:44;21.20;60.50
28959;DHT22;16066;0.000;0.000;2023-10-09T15:18:11;21.20;60.50
28959;DHT22;16066;0.000;0.000;2023-10-09T15:20:40;21.20;60.60
28959;DHT22;16066;0.000;0.000;2023-10-09T15:23:07;21.20;60.60
28959;DHT22;16066;0.000;0.000;2023-10-09T15:25:33;21.20;60.70
28959;DHT22;16066;0.000;0.000;2023-10-09T15:28:00;21.10;60.50
28959;DHT22;16066;0.000;0.000;2023-10-09T15:30:26;21.10;60.70
28959;DHT22;16066;0.000;0.000;2023-10-09T15:32:52;21.10;60.70
28959;DHT22;16066;0.000;0.000;2023-10-09T15:35:17;21.10;60.70
28959;DHT22;16066;0.000;0.000;2023-10-09T15:37:44;21.10;60.90
28959;DHT22;16066;0.000;0.000;2023-10-09T15:40:11;21.10;61.00
28959;DHT22;16066;0.000;0.000;2023-10-09T15:42:44;21.10;60.90
28959;DHT22;16066;0.000;0.000;2023-10-09T15:45:15;21.10;60.80
28959;DHT22;16066;0.000;0.000;2023-10-09T15:47:41;21.10;60.90
28959;DHT22;16066;0.000;0.000;2023-10-09T15:50:08;21.10;61.00
28959;DHT22;16066;0.000;0.000;2023-10-09T15:52:35;21.10;61.00
28959;DHT22;16066;0.000;0.000;2023-10-09T15:55:00;21.10;61.00
28959;DHT22;16066;0.000;0.000;2023-10-09T15:57:26;21.10;61.20
28959;DHT22;16066;0.000;0.000;2023-10-09T15:59:52;21.10;61.30
28959;DHT22;16066;0.000;0.000;2023-10-09T16:02:17;21.10;61.30
28959;DHT22;16066;0.000;0.000;2023-10-09T16:04:44;21.10;61.40
28959;DHT22;16066;0.000;0.000;2023-10-09T16:07:10;21.10;61.50
28959;DHT22;16066;0.000;0.000;2023-10-09T16:09:36;21.00;61.50
28959;DHT22;16066;0.000;0.000;2023-10-09T16:12:05;21.00;61.50
28959;DHT22;16066;0.000;0.000;2023-10-09T16:14:31;21.00;61.60
28959;DHT22;16066;0.000;0.000;2023-10-09T16:16:56;21.00;61.80
28959;DHT22;16066;0.000;0.000;2023-10-09T16:19:22;21.00;61.90
28959;DHT22;16066;0.000;0.000;2023-10-09T16:21:49;20.90;61.90
28959;DHT22;16066;0.000;0.000;2023-10-09T16:24:17;20.90;62.00
28959;DHT22;16066;0.000;0.000;2023-10-09T16:26:44;20.90;62.10
28959;DHT22;16066;0.000;0.000;2023-10-09T16:29:16;20.90;62.20
28959;DHT22;16066;0.000;0.000;2023-10-09T16:31:42;20.90;62.30
28959;DHT22;16066;0.000;0.000;2023-10-09T16:34:08;20.80;62.30
28959;DHT22;16066;0.000;0.000;2023-10-09T16:36:34;20.80;62.40
28959;DHT22;16066;0.000;0.000;2023-10-09T16:39:00;20.80;62.50
28959;DHT22;16066;0.000;0.000;2023-10-09T16:41:27;20.80;62.50
28959;DHT22;16066;0.000;0.000;2023-10-09T16:43:53;20.80;62.60
28959;DHT22;16066;0.000;0.000;2023-10-09T16:46:19;20.80;62.60
28959;DHT22;16066;0.000;0.000;2023-10-09T16:48:51;20.80;62.60
28959;DHT22;16066;0.000;0.000;2023-10-09T16:51:18;20.70;62.70
28959;DHT22;16066;0.000;0.000;2023-10-09T16:53:47;20.70;63.50
28959;DHT22;16066;0.000;0.000;2023-10-09T16:56:20;20.70;63.00
28959;DHT22;16066;0.000;0.000;2023-10-09T16:58:46;20.60;63.10
28959;DHT22;16066;0.000;0.000;2023-10-09T17:01:11;20.60;63.20
28959;DHT22;16066;0.000;0.000;2023-10-09T17:03:41;20.60;63.20
28959;DHT22;16066;0.000;0.000;2023-10-09T17:06:13;20.60;63.40
28959;DHT22;16066;0.000;0.000;2023-10-09T17:08:43;20.60;63.50
28959;DHT22;16066;0.000;0.000;2023-10-09T17:11:11;20.50;63.50
28959;DHT22;16066;0.000;0.000;2023-10-09T17:13:39;20.50;63.70
28959;DHT22;16066;0.000;0.000;2023-10-09T17:16:13;20.50;63.90
28959;DHT22;16066;0.000;0.000;2023-10-09T17:21:11;20.40;64.10
28959;DHT22;16066;0.000;0.000;2023-10-09T17:23:40;20.40;64.90
28959;DHT22;16066;0.000;0.000;2023-10-09T17:26:08;20.40;64.30
28959;DHT22;16066;0.000;0.000;2023-10-09T17:28:38;20.40;64.10
28959;DHT22;16066;0.000;0.000;2023-10-09T17:31:05;20.50;64.10
28959;DHT22;16066;0.000;0.000;2023-10-09T17:33:31;20.40;64.10
28959;DHT22;16066;0.000;0.000;2023-10-09T17:36:00;20.40;64.00
28959;DHT22;16066;0.000;0.000;2023-10-09T17:38:25;20.40;64.10
28959;DHT22;16066;0.000;0.000;2023-10-09T17:40:51;20.40;64.30
28959;DHT22;16066;0.000;0.000;2023-10-09T17:43:20;20.40;64.20
28959;DHT22;16066;0.000;0.000;2023-10-09T17:45:46;20.40;64.40
28959;DHT22;16066;0.000;0.000;2023-10-09T17:48:13;20.40;64.50
28959;DHT22;16066;0.000;0.000;2023-10-09T17:50:43;20.40;64.60
28959;DHT22;16066;0.000;0.000;2023-10-09T17:53:12;20.40;64.60
28959;DHT22;16066;0.000;0.000;2023-10-09T17:55:38;20.50;64.80
28959;DHT22;16066;0.000;0.000;2023-10-09T17:58:05;20.50;64.60
28959;DHT22;16066;0.000;0.000;2023-10-09T18:00:38;20.50;64.50
28959;DHT22;16066;0.000;0.000;2023-10-09T18:03:08;20.50;64.50
28959;DHT22;16066;0.000;0.000;2023-10-09T18:05:34;20.50;64.40
28959;DHT22;16066;0.000;0.000;2023-10-09T18:08:00;20.50;64.50
28959;DHT22;16066;0.000;0.000;2023-10-09T18:10:35;20.50;64.50
28959;DHT22;16066;0.000;0.000;2023-10-09T18:13:02;20.50;64.50
28959;DHT22;16066;0.000;0.000;2023-10-09T18:15:28;20.50;64.50
28959;DHT22;16066;0.000;0.000;2023-10-09T18:17:58;20.50;64.50
28959;DHT22;16066;0.000;0.000;2023-10-09T18:20:25;20.50;64.60
28959;DHT22;16066;0.000;0.000;2023-10-09T18:22:51;20.50;64.50
28959;DHT22;16066;0.000;0.000;2023-10-09T18:25:17;20.50;64.70
28959;DHT22;16066;0.000;0.000;2023-10-09T18:27:44;20.50;64.70
28959;DHT22;16066;0.000;0.000;2023-10-09T18:30:10;20.50;64.70
28959;DHT22;16066;0.000;0.000;2023-10-09T18:32:38;20.50;64.90
28959;DHT22;16066;0.000;0.000;2023-10-09T18:35:04;20.50;65.00
28959;DHT22;16066;0.000;0.000;2023-10-09T18:37:30;20.50;65.00
28959;DHT22;16066;0.000;0.000;2023-10-09T18:39:56;20.50;65.00
28959;DHT22;16066;0.000;0.000;2023-10-09T18:42:24;20.50;65.10
28959;DHT22;16066;0.000;0.000;2023-10-09T18:44:49;20.50;65.20
28959;DHT22;16066;0.000;0.000;2023-10-09T18:47:15;20.50;65.20
28959;DHT22;16066;0.000;0.000;2023-10-09T18:49:45;20.50;65.20
28959;DHT22;16066;0.000;0.000;2023-10-09T18:52:10;20.50;65.30
28959;DHT22;16066;0.000;0.000;2023-10-09T18:54:36;20.50;65.40
28959;DHT22;16066;0.000;0.000;2023-10-09T18:57:03;20.40;65.40
28959;DHT22;16066;0.000;0.000;2023-10-09T18:59:29;20.40;65.50
28959;DHT22;16066;0.000;0.000;2023-10-09T19:01:55;20.40;65.60
28959;DHT22;16066;0.000;0.000;2023-10-09T19:04:21;20.40;65.60
28959;DHT22;16066;0.000;0.000;2023-10-09T19:06:48;20.40;65.40
28959;DHT22;16066;0.000;0.000;2023-10-09T19:09:15;20.40;65.40
28959;DHT22;16066;0.000;0.000;2023-10-09T19:11:46;20.40;65.30
28959;DHT22;16066;0.000;0.000;2023-10-09T19:14:12;20.30;65.20
28959;DHT22;16066;0.000;0.000;2023-10-09T19:16:39;20.30;65.30
28959;DHT22;16066;0.000;0.000;2023-10-09T19:19:04;20.30;65.40
28959;DHT22;16066;0.000;0.000;2023-10-09T19:21:33;20.20;65.30
28959;DHT22;16066;0.000;0.000;2023-10-09T19:24:00;20.30;65.50
28959;DHT22;16066;0.000;0.000;2023-10-09T19:26:26;20.20;65.50
28959;DHT22;16066;0.000;0.000;2023-10-09T19:28:59;20.10;65.40
28959;DHT22;16066;0.000;0.000;2023-10-09T19:31:25;20.10;65.60
28959;DHT22;16066;0.000;0.000;2023-10-09T19:33:51;20.10;65.60
28959;DHT22;16066;0.000;0.000;2023-10-09T19:36:17;20.10;65.90
28959;DHT22;16066;0.000;0.000;2023-10-09T19:38:45;20.00;66.20
28959;DHT22;16066;0.000;0.000;2023-10-09T19:41:20;20.00;66.20
28959;DHT22;16066;0.000;0.000;2023-10-09T19:43:47;20.00;66.30
28959;DHT22;16066;0.000;0.000;2023-10-09T19:46:13;20.00;66.30
28959;DHT22;16066;0.000;0.000;2023-10-09T19:48:45;20.10;66.40
28959;DHT22;16066;0.000;0.000;2023-10-09T19:51:15;20.10;66.20
28959;DHT22;16066;0.000;0.000;2023-10-09T19:53:43;20.10;66.20
28959;DHT22;16066;0.000;0.000;2023-10-09T19:56:09;20.10;66.20
28959;DHT22;16066;0.000;0.000;2023-10-09T19:58:39;20.10;66.40
28959;DHT22;16066;0.000;0.000;2023-10-09T20:01:11;20.10;66.40
28959;DHT22;16066;0.000;0.000;2023-10-09T20:03:38;20.00;66.20
28959;DHT22;16066;0.000;0.000;2023-10-09T20:06:04;20.00;66.40
28959;DHT22;16066;0.000;0.000;2023-10-09T20:08:30;20.00;66.50
28959;DHT22;16066;0.000;0.000;2023-10-09T20:10:56;20.00;66.50
28959;DHT22;16066;0.000;0.000;2023-10-09T20:13:21;20.00;66.50
28959;DHT22;16066;0.000;0.000;2023-10-09T20:15:56;20.00;66.60
28959;DHT22;16066;0.000;0.000;2023-10-09T20:18:22;20.00;66.50
28959;DHT22;16066;0.000;0.000;2023-10-09T20:20:47;20.00;66.60
28959;DHT22;16066;0.000;0.000;2023-10-09T20:23:13;20.00;66.60
28959;DHT22;16066;0.000;0.000;2023-10-09T20:25:44;20.10;66.40
28959;DHT22;16066;0.000;0.000;2023-10-09T20:28:13;20.00;66.30
28959;DHT22;16066;0.000;0.000;2023-10-09T20:30:39;20.00;66.30
28959;DHT22;16066;0.000;0.000;2023-10-09T20:33:06;20.00;66.20
28959;DHT22;16066;0.000;0.000;2023-10-09T20:35:35;20.00;66.20
28959;DHT22;16066;0.000;0.000;2023-10-09T20:38:04;20.00;66.20
28959;DHT22;16066;0.000;0.000;2023-10-09T20:40:31;20.00;66.20
28959;DHT22;16066;0.000;0.000;2023-10-09T20:42:57;20.00;66.20
28959;DHT22;16066;0.000;0.000;2023-10-09T20:45:22;19.90;66.20
28959;DHT22;16066;0.000;0.000;2023-10-09T20:47:51;19.90;66.20
28959;DHT22;16066;0.000;0.000;2023-10-09T20:50:23;19.90;66.20
28959;DHT22;16066;0.000;0.000;2023-10-09T20:52:51;19.90;66.20
28959;DHT22;16066;0.000;0.000;2023-10-09T20:55:18;19.90;66.10
28959;DHT22;16066;0.000;0.000;2023-10-09T20:57:54;19.90;66.10
28959;DHT22;16066;0.000;0.000;2023-10-09T21:00:24;19.90;66.10
28959;DHT22;16066;0.000;0.000;2023-10-09T21:02:51;19.90;66.10
28959;DHT22;16066;0.000;0.000;2023-10-09T21:05:18;19.90;66.20
28959;DHT22;16066;0.000;0.000;2023-10-09T21:07:45;19.80;66.00
28959;DHT22;16066;0.000;0.000;2023-10-09T21:10:12;19.80;66.00
28959;DHT22;16066;0.000;0.000;2023-10-09T21:12:42;19.80;66.00
28959;DHT22;16066;0.000;0.000;2023-10-09T21:15:09;19.80;66.20
28959;DHT22;16066;0.000;0.000;2023-10-09T21:17:37;19.80;66.00
28959;DHT22;16066;0.000;0.000;2023-10-09T21:20:06;19.80;66.20
28959;DHT22;16066;0.000;0.000;2023-10-09T21:22:36;19.80;66.00
28959;DHT22;16066;0.000;0.000;2023-10-09T21:25:03;19.80;66.00
28959;DHT22;16066;0.000;0.000;2023-10-09T21:27:29;19.80;66.10
28959;DHT22;16066;0.000;0.000;2023-10-09T21:29:54;19.70;66.00
28959;DHT22;16066;0.000;0.000;2023-10-09T21:32:20;19.70;66.20
28959;DHT22;16066;0.000;0.000;2023-10-09T21:34:46;19.70;66.30
28959;DHT22;16066;0.000;0.000;2023-10-09T21:37:13;19.70;66.20
28959;DHT22;16066;0.000;0.000;2023-10-09T21:39:38;19.60;66.20
28959;DHT22;16066;0.000;0.000;2023-10-09T21:42:04;19.70;66.40
28959;DHT22;16066;0.000;0.000;2023-10-09T21:44:33;19.60;66.30
28959;DHT22;16066;0.000;0.000;2023-10-09T21:46:59;19.60;66.30
28959;DHT22;16066;0.000;0.000;2023-10-09T21:49:24;19.60;66.50
28959;DHT22;16066;0.000;0.000;2023-10-09T21:51:50;19.60;66.50